Time,TemperatureF,DewpointF,PressureIn,WindDirection,WindDirectionDegrees,WindSpeedMPH,WindSpeedGustMPH,Humidity,HourlyPrecipIn,Conditions,Clouds,dailyrainin,SoftwareType,DateUTC
2013-01-07 00:12:00,33.0,32.0,-100.00,West,269,0.0,2.0,97,0.00,,,0.00,,2013-01-07 06:12:00,
2013-01-07 00:22:00,33.0,32.0,-100.00,West,269,0.0,2.0,97,0.00,,,0.00,,2013-01-07 06:22:00,
2013-01-07 00:32:00,33.0,32.0,-100.00,West,269,0.0,2.0,97,0.00,,,0.00,,2013-01-07 06:32:00,
2013-01-07 00:42:00,33.0,32.0,-100.00,West,269,0.0,2.0,97,0.00,,,0.00,,2013-01-07 06:42:00,
2013-01-07 01:12:00,33.0,32.0,-100.00,SW,219,0.0,0.0,97,0.00,,,0.00,,2013-01-07 07:12:00,
2013-01-07 01:22:00,33.0,32.0,-100.00,SW,219,0.0,0.0,97,0.00,,,0.00,,2013-01-07 07:22:00,
2013-01-07 01:33:00,33.0,32.0,-100.00,SW,219,0.0,0.0,97,0.00,,,0.00,,2013-01-07 07:33:00,
2013-01-07 01:42:00,33.0,32.0,-100.00,SW,219,0.0,0.0,97,0.00,,,0.00,,2013-01-07 07:42:00,
2013-01-07 02:12:00,32.0,31.0,-100.00,SSW,196,0.0,0.0,97,0.00,,,0.00,,2013-01-07 08:12:00,
2013-01-07 02:22:00,32.0,31.0,-100.00,SSW,196,0.0,0.0,97,0.00,,,0.00,,2013-01-07 08:22:00,
2013-01-07 02:32:00,32.0,31.0,-100.00,SSW,196,0.0,0.0,97,0.00,,,0.00,,2013-01-07 08:32:00,
2013-01-07 02:42:00,32.0,31.0,-100.00,SSW,196,0.0,0.0,97,0.00,,,0.00,,2013-01-07 08:42:00,
2013-01-07 03:02:00,31.0,30.0,-100.00,SSE,167,0.0,2.0,97,0.00,,,0.00,,2013-01-07 09:02:00,
2013-01-07 03:12:00,31.0,30.0,-100.00,SSE,167,0.0,2.0,97,0.00,,,0.00,,2013-01-07 09:12:00,
2013-01-07 03:22:00,31.0,30.0,-100.00,SSE,167,0.0,2.0,97,0.00,,,0.00,,2013-01-07 09:22:00,
2013-01-07 03:32:00,31.0,30.0,-100.00,SSE,167,0.0,2.0,97,0.00,,,0.00,,2013-01-07 09:32:00,
2013-01-07 03:42:00,31.0,30.0,-100.00,SSE,167,0.0,2.0,97,0.00,,,0.00,,2013-01-07 09:42:00,
2013-01-07 04:02:00,31.0,30.0,-100.00,SSW,204,0.0,0.0,97,0.00,,,0.00,,2013-01-07 10:02:00,
2013-01-07 04:12:00,31.0,30.0,-100.00,SSW,204,0.0,0.0,97,0.00,,,0.00,,2013-01-07 10:12:00,
2013-01-07 04:22:00,31.0,30.0,-100.00,SSW,204,0.0,0.0,97,0.00,,,0.00,,2013-01-07 10:22:00,
2013-01-07 04:32:00,31.0,30.0,-100.00,SSW,204,0.0,0.0,97,0.00,,,0.00,,2013-01-07 10:32:00,
2013-01-07 04:42:00,31.0,30.0,-100.00,SSW,204,0.0,0.0,97,0.00,,,0.00,,2013-01-07 10:42:00,
2013-01-07 05:12:00,30.0,29.0,-100.00,NE,53,0.0,0.0,97,0.00,,,0.00,,2013-01-07 11:12:00,
2013-01-07 05:22:00,30.0,29.0,-100.00,NE,53,0.0,0.0,97,0.00,,,0.00,,2013-01-07 11:22:00,
2013-01-07 05:33:00,30.0,29.0,-100.00,NE,53,0.0,0.0,97,0.00,,,0.00,,2013-01-07 11:33:00,
2013-01-07 05:43:00,30.0,29.0,-100.00,NE,53,0.0,0.0,97,0.00,,,0.00,,2013-01-07 11:43:00,
2013-01-07 06:12:00,30.0,29.0,-100.00,NNW,334,0.0,2.0,97,0.00,,,0.00,,2013-01-07 12:12:00,
2013-01-07 06:22:00,30.0,29.0,-100.00,NNW,334,0.0,2.0,97,0.00,,,0.00,,2013-01-07 12:22:00,
2013-01-07 06:33:00,30.0,29.0,-100.00,NNW,334,0.0,2.0,97,0.00,,,0.00,,2013-01-07 12:33:00,
2013-01-07 06:43:00,30.0,29.0,-100.00,NNW,334,0.0,2.0,97,0.00,,,0.00,,2013-01-07 12:43:00,
2013-01-07 07:12:00,31.0,31.0,-100.00,ENE,57,1.0,4.0,98,0.00,,,0.00,,2013-01-07 13:12:00,
2013-01-07 07:23:00,31.0,31.0,-100.00,ENE,57,1.0,4.0,98,0.00,,,0.00,,2013-01-07 13:23:00,
2013-01-07 07:33:00,31.0,31.0,-100.00,ENE,57,1.0,4.0,98,0.00,,,0.00,,2013-01-07 13:33:00,
2013-01-07 07:42:00,31.0,31.0,-100.00,ENE,57,1.0,4.0,98,0.00,,,0.00,,2013-01-07 13:42:00,
2013-01-07 08:12:00,31.0,30.0,-100.00,North,2,0.0,0.0,97,0.00,,,0.00,,2013-01-07 14:12:00,
2013-01-07 08:22:00,31.0,30.0,-100.00,North,2,0.0,0.0,97,0.00,,,0.00,,2013-01-07 14:22:00,
2013-01-07 08:33:00,31.0,30.0,-100.00,North,2,0.0,0.0,97,0.00,,,0.00,,2013-01-07 14:33:00,
2013-01-07 08:42:00,31.0,30.0,-100.00,North,2,0.0,0.0,97,0.00,,,0.00,,2013-01-07 14:42:00,
2013-01-07 09:12:00,40.0,38.0,-100.00,ENE,75,4.0,7.0,92,0.00,,,0.00,,2013-01-07 15:12:00,
2013-01-07 09:22:00,40.0,38.0,-100.00,ENE,75,4.0,7.0,92,0.00,,,0.00,,2013-01-07 15:22:00,
2013-01-07 09:33:00,40.0,38.0,-100.00,ENE,75,4.0,7.0,92,0.00,,,0.00,,2013-01-07 15:33:00,
2013-01-07 09:42:00,40.0,38.0,-100.00,ENE,75,4.0,7.0,92,0.00,,,0.00,,2013-01-07 15:42:00,
2013-01-07 10:12:00,44.0,38.0,-100.00,East,80,5.0,8.0,79,0.00,,,0.00,,2013-01-07 16:12:00,
2013-01-07 10:22:00,44.0,38.0,-100.00,East,80,5.0,8.0,79,0.00,,,0.00,,2013-01-07 16:22:00,
2013-01-07 10:33:00,44.0,38.0,-100.00,East,80,5.0,8.0,79,0.00,,,0.00,,2013-01-07 16:33:00,
2013-01-07 10:43:00,44.0,38.0,-100.00,East,80,5.0,8.0,79,0.00,,,0.00,,2013-01-07 16:43:00,
2013-01-07 11:12:00,49.0,39.0,-100.00,ENE,62,5.0,10.0,68,0.01,,,0.01,,2013-01-07 17:12:00,
2013-01-07 11:23:00,49.0,39.0,-100.00,ENE,62,5.0,10.0,68,0.01,,,0.01,,2013-01-07 17:23:00,
2013-01-07 11:33:00,49.0,39.0,-100.00,ENE,62,5.0,10.0,68,0.01,,,0.01,,2013-01-07 17:33:00,
2013-01-07 11:42:00,49.0,39.0,-100.00,ENE,62,5.0,10.0,68,0.01,,,0.01,,2013-01-07 17:42:00,
2013-01-07 12:12:00,53.0,38.0,-100.00,ESE,120,4.0,9.0,56,0.00,,,0.01,,2013-01-07 18:12:00,
2013-01-07 12:23:00,53.0,38.0,-100.00,ESE,120,4.0,9.0,56,0.00,,,0.01,,2013-01-07 18:23:00,
2013-01-07 12:33:00,53.0,38.0,-100.00,ESE,120,4.0,9.0,56,0.00,,,0.01,,2013-01-07 18:33:00,
2013-01-07 12:42:00,53.0,38.0,-100.00,ESE,120,4.0,9.0,56,0.00,,,0.01,,2013-01-07 18:42:00,
2013-01-07 13:12:00,55.0,37.0,-100.00,ENE,69,5.0,9.0,50,0.00,,,0.01,,2013-01-07 19:12:00,
2013-01-07 13:22:00,55.0,37.0,-100.00,ENE,69,5.0,9.0,50,0.00,,,0.01,,2013-01-07 19:22:00,
2013-01-07 13:33:00,55.0,37.0,-100.00,ENE,69,5.0,9.0,50,0.00,,,0.01,,2013-01-07 19:33:00,
2013-01-07 13:42:00,55.0,37.0,-100.00,ENE,69,5.0,9.0,50,0.00,,,0.01,,2013-01-07 19:42:00,
2013-01-07 14:12:00,57.0,38.0,-100.00,North,355,3.0,6.0,48,0.00,,,0.01,,2013-01-07 20:12:00,
2013-01-07 14:23:00,57.0,38.0,-100.00,North,355,3.0,6.0,48,0.00,,,0.01,,2013-01-07 20:23:00,
2013-01-07 14:33:00,57.0,38.0,-100.00,North,355,3.0,6.0,48,0.00,,,0.01,,2013-01-07 20:33:00,
2013-01-07 14:42:00,57.0,38.0,-100.00,North,355,3.0,6.0,48,0.00,,,0.01,,2013-01-07 20:42:00,
2013-01-07 15:12:00,57.0,35.0,-100.00,NE,52,4.0,7.0,43,0.00,,,0.01,,2013-01-07 21:12:00,
2013-01-07 15:23:00,57.0,35.0,-100.00,NE,52,4.0,7.0,43,0.00,,,0.01,,2013-01-07 21:23:00,
2013-01-07 15:33:00,57.0,35.0,-100.00,NE,52,4.0,7.0,43,0.00,,,0.01,,2013-01-07 21:33:00,
2013-01-07 15:43:00,57.0,35.0,-100.00,NE,52,4.0,7.0,43,0.00,,,0.01,,2013-01-07 21:43:00,
2013-01-07 16:12:00,56.0,37.0,-100.00,ESE,111,1.0,7.0,48,0.00,,,0.01,,2013-01-07 22:12:00,
2013-01-07 16:22:00,56.0,37.0,-100.00,ESE,111,1.0,7.0,48,0.00,,,0.01,,2013-01-07 22:22:00,
2013-01-07 16:33:00,56.0,37.0,-100.00,ESE,111,1.0,7.0,48,0.00,,,0.01,,2013-01-07 22:33:00,
2013-01-07 16:42:00,56.0,37.0,-100.00,ESE,111,1.0,7.0,48,0.00,,,0.01,,2013-01-07 22:42:00,
2013-01-07 17:12:00,53.0,40.0,-100.00,East,91,2.0,4.0,62,0.00,,,0.01,,2013-01-07 23:12:00,
2013-01-07 17:22:00,53.0,40.0,-100.00,East,91,2.0,4.0,62,0.00,,,0.01,,2013-01-07 23:22:00,
2013-01-07 17:33:00,53.0,40.0,-100.00,East,91,2.0,4.0,62,0.00,,,0.01,,2013-01-07 23:33:00,
2013-01-07 17:42:00,53.0,40.0,-100.00,East,91,2.0,4.0,62,0.00,,,0.01,,2013-01-07 23:42:00,
2013-01-07 18:12:00,48.0,42.0,-100.00,East,88,1.0,2.0,81,0.00,,,0.01,,2013-01-08 00:12:00,
2013-01-07 18:22:00,48.0,42.0,-100.00,East,88,1.0,2.0,81,0.00,,,0.01,,2013-01-08 00:22:00,
2013-01-07 18:33:00,48.0,42.0,-100.00,East,88,1.0,2.0,81,0.00,,,0.01,,2013-01-08 00:33:00,
2013-01-07 18:42:00,48.0,42.0,-100.00,East,88,1.0,2.0,81,0.00,,,0.01,,2013-01-08 00:42:00,
2013-01-07 19:12:00,44.0,42.0,-100.00,NW,320,0.0,2.0,91,0.00,,,0.01,,2013-01-08 01:12:00,
2013-01-07 19:22:00,44.0,42.0,-100.00,NW,320,0.0,2.0,91,0.00,,,0.01,,2013-01-08 01:22:00,
2013-01-07 19:33:00,44.0,42.0,-100.00,NW,320,0.0,2.0,91,0.00,,,0.01,,2013-01-08 01:33:00,
2013-01-07 19:42:00,44.0,42.0,-100.00,NW,320,0.0,2.0,91,0.00,,,0.01,,2013-01-08 01:42:00,
2013-01-07 20:12:00,42.0,40.0,-100.00,ESE,107,0.0,0.0,94,0.00,,,-99.99,,2013-01-08 02:12:00,
2013-01-07 20:22:00,42.0,40.0,-100.00,ESE,107,0.0,0.0,94,0.00,,,-99.99,,2013-01-08 02:22:00,
2013-01-07 20:33:00,42.0,40.0,-100.00,ESE,107,0.0,0.0,94,0.00,,,-99.99,,2013-01-08 02:33:00,
2013-01-07 20:42:00,42.0,40.0,-100.00,ESE,107,0.0,0.0,94,0.00,,,-99.99,,2013-01-08 02:42:00,
2013-01-07 21:12:00,42.0,41.0,-100.00,West,264,0.0,1.0,96,0.00,,,0.01,,2013-01-08 03:12:00,
2013-01-07 21:22:00,42.0,41.0,-100.00,West,264,0.0,1.0,96,0.00,,,0.01,,2013-01-08 03:22:00,
2013-01-07 21:32:00,42.0,41.0,-100.00,West,264,0.0,1.0,96,0.00,,,0.01,,2013-01-08 03:32:00,
2013-01-07 21:43:00,42.0,41.0,-100.00,West,264,0.0,1.0,96,0.00,,,0.01,,2013-01-08 03:43:00,
2013-01-07 22:12:00,43.0,41.0,-100.00,NE,36,0.0,1.0,94,0.00,,,0.01,,2013-01-08 04:12:00,
2013-01-07 22:22:00,43.0,41.0,-100.00,NE,36,0.0,1.0,94,0.00,,,0.01,,2013-01-08 04:22:00,
2013-01-07 22:32:00,43.0,41.0,-100.00,NE,36,0.0,1.0,94,0.00,,,0.01,,2013-01-08 04:32:00,
2013-01-07 22:42:00,43.0,41.0,-100.00,NE,36,0.0,1.0,94,0.00,,,0.01,,2013-01-08 04:42:00,
2013-01-07 23:12:00,45.0,40.0,-100.00,ENE,65,2.0,3.0,83,0.00,,,0.01,,2013-01-08 05:12:00,
2013-01-07 23:22:00,45.0,40.0,-100.00,ENE,65,2.0,3.0,83,0.00,,,0.01,,2013-01-08 05:22:00,
2013-01-07 23:33:00,45.0,40.0,-100.00,ENE,65,2.0,3.0,83,0.00,,,0.01,,2013-01-08 05:33:00,
2013-01-07 23:42:00,45.0,40.0,-100.00,ENE,65,2.0,3.0,83,0.00,,,0.01,,2013-01-08 05:42:00,